sensor_id;sensor_type;location;lat;lon;timestamp;pressure;altitude;pressure_sealevel;temperature
77331;BMP280;66405;48.328;7.820;2023-04-15T00:00:32;98934.59;;;8.79
77331;BMP280;66405;48.328;7.820;2023-04-15T00:02:58;98923.22;;;8.75
77331;BMP280;66405;48.328;7.820;2023-04-15T00:05:28;98927.88;;;8.75
77331;BMP280;66405;48.328;7.820;2023-04-15T00:07:54;98928.03;;;8.71
77331;BMP280;66405;48.328;7.820;2023-04-15T00:10:20;98916.63;;;8.67
77331;BMP280;66405;48.328;7.820;2023-04-15T00:12:46;98918.47;;;8.61
77331;BMP280;66405;48.328;7.820;2023-04-15T00:15:11;98922.06;;;8.58
77331;BMP280;66405;48.328;7.820;2023-04-15T00:17:37;98922.22;;;8.54
77331;BMP280;66405;48.328;7.820;2023-04-15T00:20:04;98923.88;;;8.51
77331;BMP280;66405;48.328;7.820;2023-04-15T00:22:31;98921.06;;;8.46
77331;BMP280;66405;48.328;7.820;2023-04-15T00:24:57;98915.50;;;8.40
77331;BMP280;66405;48.328;7.820;2023-04-15T00:27:22;98919.25;;;8.33
77331;BMP280;66405;48.328;7.820;2023-04-15T00:29:48;98924.47;;;8.28
77331;BMP280;66405;48.328;7.820;2023-04-15T00:32:14;98920.19;;;8.21
77331;BMP280;66405;48.328;7.820;2023-04-15T00:34:40;98914.63;;;8.15
77331;BMP280;66405;48.328;7.820;2023-04-15T00:37:06;98909.44;;;8.12
77331;BMP280;66405;48.328;7.820;2023-04-15T00:39:31;98901.31;;;8.02
77331;BMP280;66405;48.328;7.820;2023-04-15T00:41:57;98894.00;;;8.03
77331;BMP280;66405;48.328;7.820;2023-04-15T00:44:22;98892.22;;;8.00
77331;BMP280;66405;48.328;7.820;2023-04-15T00:46:50;98894.00;;;8.03
77331;BMP280;66405;48.328;7.820;2023-04-15T00:49:16;98889.34;;;8.03
77331;BMP280;66405;48.328;7.820;2023-04-15T00:51:42;98903.13;;;8.06
77331;BMP280;66405;48.328;7.820;2023-04-15T00:54:09;98899.97;;;8.07
77331;BMP280;66405;48.328;7.820;2023-04-15T00:56:35;98896.53;;;8.07
77331;BMP280;66405;48.328;7.820;2023-04-15T00:59:03;98899.97;;;8.07
77331;BMP280;66405;48.328;7.820;2023-04-15T01:01:28;98898.03;;;8.08
77331;BMP280;66405;48.328;7.820;2023-04-15T01:03:56;98898.03;;;8.08
77331;BMP280;66405;48.328;7.820;2023-04-15T01:06:25;98896.09;;;8.08
77331;BMP280;66405;48.328;7.820;2023-04-15T01:08:56;98897.59;;;8.09
77331;BMP280;66405;48.328;7.820;2023-04-15T01:11:22;98890.28;;;8.10
77331;BMP280;66405;48.328;7.820;2023-04-15T01:13:49;98895.97;;;8.12
77331;BMP280;66405;48.328;7.820;2023-04-15T01:16:15;98897.00;;;8.14
77331;BMP280;66405;48.328;7.820;2023-04-15T01:18:41;98890.69;;;8.17
77331;BMP280;66405;48.328;7.820;2023-04-15T01:21:07;98885.19;;;8.21
77331;BMP280;66405;48.328;7.820;2023-04-15T01:23:35;98889.66;;;8.24
77331;BMP280;66405;48.328;7.820;2023-04-15T01:26:06;98883.38;;;8.27
77331;BMP280;66405;48.328;7.820;2023-04-15T01:28:35;98882.78;;;8.32
77331;BMP280;66405;48.328;7.820;2023-04-15T01:31:11;98882.59;;;8.36
77331;BMP280;66405;48.328;7.820;2023-04-15T01:33:38;98882.91;;;8.38
77331;BMP280;66405;48.328;7.820;2023-04-15T01:36:05;98879.16;;;8.35
77331;BMP280;66405;48.328;7.820;2023-04-15T01:38:33;98882.59;;;8.36
77331;BMP280;66405;48.328;7.820;2023-04-15T01:40:58;98881.59;;;8.33
77331;BMP280;66405;48.328;7.820;2023-04-15T01:43:25;98880.53;;;8.31
77331;BMP280;66405;48.328;7.820;2023-04-15T01:45:50;98884.13;;;8.28
77331;BMP280;66405;48.328;7.820;2023-04-15T01:48:16;98885.03;;;8.25
77331;BMP280;66405;48.328;7.820;2023-04-15T01:50:42;98883.69;;;8.20
77331;BMP280;66405;48.328;7.820;2023-04-15T01:53:08;98890.41;;;8.15
77331;BMP280;66405;48.328;7.820;2023-04-15T01:55:34;98890.72;;;8.08
77331;BMP280;66405;48.328;7.820;2023-04-15T01:57:59;98891.63;;;8.05
77331;BMP280;66405;48.328;7.820;2023-04-15T02:00:25;98890.28;;;8.00
77331;BMP280;66405;48.328;7.820;2023-04-15T02:02:51;98892.66;;;7.98
77331;BMP280;66405;48.328;7.820;2023-04-15T02:05:17;98885.47;;;7.95
77331;BMP280;66405;48.328;7.820;2023-04-15T02:07:46;98894.47;;;7.92
77331;BMP280;66405;48.328;7.820;2023-04-15T02:10:15;98896.38;;;7.92
77331;BMP280;66405;48.328;7.820;2023-04-15T02:12:41;98894.59;;;7.89
77331;BMP280;66405;48.328;7.820;2023-04-15T02:15:07;98893.56;;;7.86
77331;BMP280;66405;48.328;7.820;2023-04-15T02:17:34;98894.00;;;7.84
77331;BMP280;66405;48.328;7.820;2023-04-15T02:20:01;98886.81;;;7.81
77331;BMP280;66405;48.328;7.820;2023-04-15T02:22:26;98896.06;;;7.80
77331;BMP280;66405;48.328;7.820;2023-04-15T02:24:52;98899.69;;;7.77
77331;BMP280;66405;48.328;7.820;2023-04-15T02:27:17;98897.88;;;7.74
77331;BMP280;66405;48.328;7.820;2023-04-15T02:29:43;98889.03;;;7.74
77331;BMP280;66405;48.328;7.820;2023-04-15T02:32:10;98892.94;;;7.73
77331;BMP280;66405;48.328;7.820;2023-04-15T02:34:36;98889.19;;;7.70
77331;BMP280;66405;48.328;7.820;2023-04-15T02:37:06;98894.56;;;7.70
77331;BMP280;66405;48.328;7.820;2023-04-15T02:39:33;98896.22;;;7.67
77331;BMP280;66405;48.328;7.820;2023-04-15T02:41:59;98894.72;;;7.66
77331;BMP280;66405;48.328;7.820;2023-04-15T02:44:26;98895.50;;;7.67
77331;BMP280;66405;48.328;7.820;2023-04-15T02:46:56;98890.13;;;7.67
77331;BMP280;66405;48.328;7.820;2023-04-15T02:49:23;98890.13;;;7.67
77331;BMP280;66405;48.328;7.820;2023-04-15T02:51:48;98891.63;;;7.68
77331;BMP280;66405;48.328;7.820;2023-04-15T02:54:19;98901.13;;;7.69
77331;BMP280;66405;48.328;7.820;2023-04-15T02:56:45;98907.59;;;7.72
77331;BMP280;66405;48.328;7.820;2023-04-15T02:59:11;98906.41;;;7.73
77331;BMP280;66405;48.328;7.820;2023-04-15T03:01:37;98903.72;;;7.73
77331;BMP280;66405;48.328;7.820;2023-04-15T03:04:02;98896.69;;;7.75
77331;BMP280;66405;48.328;7.820;2023-04-15T03:06:28;98905.34;;;7.79
77331;BMP280;66405;48.328;7.820;2023-04-15T03:08:53;98903.72;;;7.82
77331;BMP280;66405;48.328;7.820;2023-04-15T03:11:19;98903.25;;;7.83
77331;BMP280;66405;48.328;7.820;2023-04-15T03:13:45;98901.63;;;7.86
77331;BMP280;66405;48.328;7.820;2023-04-15T03:16:24;98899.97;;;7.89
77331;BMP280;66405;48.328;7.820;2023-04-15T03:18:50;98901.47;;;7.90
77331;BMP280;66405;48.328;7.820;2023-04-15T03:21:16;98898.38;;;7.91
77331;BMP280;66405;48.328;7.820;2023-04-15T03:23:43;98903.25;;;7.93
77331;BMP280;66405;48.328;7.820;2023-04-15T03:26:23;98907.13;;;7.92
77331;BMP280;66405;48.328;7.820;2023-04-15T03:28:48;98899.38;;;7.94
77331;BMP280;66405;48.328;7.820;2023-04-15T03:31:15;98896.69;;;7.94
77331;BMP280;66405;48.328;7.820;2023-04-15T03:33:41;98896.25;;;7.95
77331;BMP280;66405;48.328;7.820;2023-04-15T03:36:06;98895.06;;;7.96
77331;BMP280;66405;48.328;7.820;2023-04-15T03:38:32;98898.06;;;7.98
77331;BMP280;66405;48.328;7.820;2023-04-15T03:40:57;98892.97;;;8.00
77331;BMP280;66405;48.328;7.820;2023-04-15T03:43:22;98885.47;;;8.05
77331;BMP280;66405;48.328;7.820;2023-04-15T03:45:48;98883.09;;;8.07
77331;BMP280;66405;48.328;7.820;2023-04-15T03:48:13;98884.59;;;8.08
77331;BMP280;66405;48.328;7.820;2023-04-15T03:50:39;98884.13;;;8.09
77331;BMP280;66405;48.328;7.820;2023-04-15T03:53:04;98876.06;;;8.09
77331;BMP280;66405;48.328;7.820;2023-04-15T03:55:30;98870.69;;;8.09
77331;BMP280;66405;48.328;7.820;2023-04-15T03:57:55;98871.75;;;8.12
77331;BMP280;66405;48.328;7.820;2023-04-15T04:00:21;98868.63;;;8.13
77331;BMP280;66405;48.328;7.820;2023-04-15T04:02:46;98867.38;;;8.14
77331;BMP280;66405;48.328;7.820;2023-04-15T04:05:12;98870.38;;;8.16
77331;BMP280;66405;48.328;7.820;2023-04-15T04:07:37;98884.59;;;8.17
77331;BMP280;66405;48.328;7.820;2023-04-15T04:10:03;98879.94;;;8.17
77331;BMP280;66405;48.328;7.820;2023-04-15T04:12:28;98882.19;;;8.19
77331;BMP280;66405;48.328;7.820;2023-04-15T04:14:54;98884.44;;;8.21
77331;BMP280;66405;48.328;7.820;2023-04-15T04:17:19;98886.66;;;8.22
77331;BMP280;66405;48.328;7.820;2023-04-15T04:19:45;98886.25;;;8.24
77331;BMP280;66405;48.328;7.820;2023-04-15T04:22:10;98895.34;;;8.26
77331;BMP280;66405;48.328;7.820;2023-04-15T04:24:36;98897.13;;;8.29
77331;BMP280;66405;48.328;7.820;2023-04-15T04:27:01;98895.94;;;8.30
77331;BMP280;66405;48.328;7.820;2023-04-15T04:29:27;98897.00;;;8.33
77331;BMP280;66405;48.328;7.820;2023-04-15T04:31:52;98900.41;;;8.33
77331;BMP280;66405;48.328;7.820;2023-04-15T04:34:18;98905.34;;;8.35
77331;BMP280;66405;48.328;7.820;2023-04-15T04:36:43;98905.19;;;8.39
77331;BMP280;66405;48.328;7.820;2023-04-15T04:39:09;98907.75;;;8.42
77331;BMP280;66405;48.328;7.820;2023-04-15T04:41:34;98903.41;;;8.45
77331;BMP280;66405;48.328;7.820;2023-04-15T04:43:59;98911.31;;;8.48
77331;BMP280;66405;48.328;7.820;2023-04-15T04:46:25;98917.00;;;8.50
77331;BMP280;66405;48.328;7.820;2023-04-15T04:48:51;98915.81;;;8.51
77331;BMP280;66405;48.328;7.820;2023-04-15T04:51:16;98921.03;;;8.55
77331;BMP280;66405;48.328;7.820;2023-04-15T04:53:42;98923.56;;;8.59
77331;BMP280;66405;48.328;7.820;2023-04-15T04:56:08;98923.84;;;8.61
77331;BMP280;66405;48.328;7.820;2023-04-15T04:58:33;98920.28;;;8.64
77331;BMP280;66405;48.328;7.820;2023-04-15T05:00:59;98924.72;;;8.67
77331;BMP280;66405;48.328;7.820;2023-04-15T05:03:24;98918.75;;;8.72
77331;BMP280;66405;48.328;7.820;2023-04-15T05:05:50;98922.03;;;8.76
77331;BMP280;66405;48.328;7.820;2023-04-15T05:08:15;98925.31;;;8.80
77331;BMP280;66405;48.328;7.820;2023-04-15T05:10:41;98919.75;;;8.84
77331;BMP280;66405;48.328;7.820;2023-04-15T05:13:06;98924.97;;;8.88
77331;BMP280;66405;48.328;7.820;2023-04-15T05:15:32;98924.06;;;8.91
77331;BMP280;66405;48.328;7.820;2023-04-15T05:17:59;98915.84;;;8.94
77331;BMP280;66405;48.328;7.820;2023-04-15T05:20:27;98917.63;;;8.97
77331;BMP280;66405;48.328;7.820;2023-04-15T05:22:53;98927.47;;;9.00
77331;BMP280;66405;48.328;7.820;2023-04-15T05:25:19;98924.63;;;9.04
77331;BMP280;66405;48.328;7.820;2023-04-15T05:27:44;98917.84;;;9.09
77331;BMP280;66405;48.328;7.820;2023-04-15T05:30:13;98925.34;;;9.14
77331;BMP280;66405;48.328;7.820;2023-04-15T05:32:38;98930.41;;;9.21
77331;BMP280;66405;48.328;7.820;2023-04-15T05:35:05;98930.50;;;9.27
77331;BMP280;66405;48.328;7.820;2023-04-15T05:37:32;98927.94;;;9.32
77331;BMP280;66405;48.328;7.820;2023-04-15T05:39:57;98931.06;;;9.40
77331;BMP280;66405;48.328;7.820;2023-04-15T05:42:23;98935.63;;;9.49
77331;BMP280;66405;48.328;7.820;2023-04-15T05:44:48;98931.38;;;9.57
77331;BMP280;66405;48.328;7.820;2023-04-15T05:47:13;98936.44;;;9.64
77331;BMP280;66405;48.328;7.820;2023-04-15T05:49:40;98933.44;;;9.72
77331;BMP280;66405;48.328;7.820;2023-04-15T05:52:05;98944.63;;;9.79
77331;BMP280;66405;48.328;7.820;2023-04-15T05:54:31;98940.06;;;9.85
77331;BMP280;66405;48.328;7.820;2023-04-15T05:56:56;98940.91;;;9.92
77331;BMP280;66405;48.328;7.820;2023-04-15T05:59:22;98951.09;;;9.97
77331;BMP280;66405;48.328;7.820;2023-04-15T06:01:48;98946.22;;;10.01
77331;BMP280;66405;48.328;7.820;2023-04-15T06:04:14;98950.25;;;10.06
77331;BMP280;66405;48.328;7.820;2023-04-15T06:06:39;98942.25;;;10.11
77331;BMP280;66405;48.328;7.820;2023-04-15T06:09:05;98945.34;;;10.19
77331;BMP280;66405;48.328;7.820;2023-04-15T06:11:30;98955.06;;;10.26
77331;BMP280;66405;48.328;7.820;2023-04-15T06:13:56;98953.66;;;10.30
77331;BMP280;66405;48.328;7.820;2023-04-15T06:16:21;98942.94;;;10.36
77331;BMP280;66405;48.328;7.820;2023-04-15T06:18:47;98944.25;;;10.41
77331;BMP280;66405;48.328;7.820;2023-04-15T06:21:13;98942.09;;;10.45
77331;BMP280;66405;48.328;7.820;2023-04-15T06:23:39;98952.81;;;10.54
77331;BMP280;66405;48.328;7.820;2023-04-15T06:26:05;98947.22;;;10.58
77331;BMP280;66405;48.328;7.820;2023-04-15T06:28:31;98948.28;;;10.60
77331;BMP280;66405;48.328;7.820;2023-04-15T06:30:57;98947.13;;;10.67
77331;BMP280;66405;48.328;7.820;2023-04-15T06:33:22;98951.41;;;10.74
77331;BMP280;66405;48.328;7.820;2023-04-15T06:35:48;98945.72;;;10.72
77331;BMP280;66405;48.328;7.820;2023-04-15T06:38:14;98946.94;;;10.71
77331;BMP280;66405;48.328;7.820;2023-04-15T06:40:40;98950.13;;;10.69
77331;BMP280;66405;48.328;7.820;2023-04-15T06:43:06;98946.47;;;10.72
77331;BMP280;66405;48.328;7.820;2023-04-15T06:45:32;98947.22;;;10.73
77331;BMP280;66405;48.328;7.820;2023-04-15T06:47:57;98943.78;;;10.72
77331;BMP280;66405;48.328;7.820;2023-04-15T06:50:23;98949.09;;;10.81
77331;BMP280;66405;48.328;7.820;2023-04-15T06:52:49;98960.34;;;10.95
77331;BMP280;66405;48.328;7.820;2023-04-15T06:55:15;98954.91;;;11.10
77331;BMP280;66405;48.328;7.820;2023-04-15T06:57:40;98962.03;;;11.28
77331;BMP280;66405;48.328;7.820;2023-04-15T07:00:06;98948.56;;;11.48
77331;BMP280;66405;48.328;7.820;2023-04-15T07:02:34;98955.22;;;11.74
77331;BMP280;66405;48.328;7.820;2023-04-15T07:05:00;98950.06;;;11.96
77331;BMP280;66405;48.328;7.820;2023-04-15T07:07:25;98955.38;;;12.11
77331;BMP280;66405;48.328;7.820;2023-04-15T07:09:51;98953.84;;;12.31
77331;BMP280;66405;48.328;7.820;2023-04-15T07:12:18;98951.34;;;12.53
77331;BMP280;66405;48.328;7.820;2023-04-15T07:14:43;98959.16;;;12.78
77331;BMP280;66405;48.328;7.820;2023-04-15T07:17:09;98952.69;;;13.07
77331;BMP280;66405;48.328;7.820;2023-04-15T07:19:35;98955.03;;;13.37
77331;BMP280;66405;48.328;7.820;2023-04-15T07:22:01;98953.19;;;13.66
77331;BMP280;66405;48.328;7.820;2023-04-15T07:24:26;98956.66;;;13.83
77331;BMP280;66405;48.328;7.820;2023-04-15T07:26:53;98956.72;;;13.95
77331;BMP280;66405;48.328;7.820;2023-04-15T07:29:20;98951.31;;;14.12
77331;BMP280;66405;48.328;7.820;2023-04-15T07:31:45;98949.34;;;14.29
77331;BMP280;66405;48.328;7.820;2023-04-15T07:34:11;98957.50;;;14.52
77331;BMP280;66405;48.328;7.820;2023-04-15T07:36:36;98944.13;;;14.76
77331;BMP280;66405;48.328;7.820;2023-04-15T07:39:02;98950.50;;;15.02
77331;BMP280;66405;48.328;7.820;2023-04-15T07:41:29;98943.25;;;15.21
77331;BMP280;66405;48.328;7.820;2023-04-15T07:43:55;98959.09;;;15.23
77331;BMP280;66405;48.328;7.820;2023-04-15T07:46:20;98959.53;;;15.38
77331;BMP280;66405;48.328;7.820;2023-04-15T07:48:48;98964.66;;;15.53
77331;BMP280;66405;48.328;7.820;2023-04-15T07:51:14;98962.41;;;15.57
77331;BMP280;66405;48.328;7.820;2023-04-15T07:53:42;98967.81;;;15.63
77331;BMP280;66405;48.328;7.820;2023-04-15T07:56:08;98964.63;;;15.59
77331;BMP280;66405;48.328;7.820;2023-04-15T07:58:34;98960.88;;;15.68
77331;BMP280;66405;48.328;7.820;2023-04-15T08:01:00;98966.63;;;15.94
77331;BMP280;66405;48.328;7.820;2023-04-15T08:03:26;98964.63;;;16.00
77331;BMP280;66405;48.328;7.820;2023-04-15T08:05:51;98966.31;;;16.04
77331;BMP280;66405;48.328;7.820;2023-04-15T08:08:17;98966.28;;;16.09
77331;BMP280;66405;48.328;7.820;2023-04-15T08:10:42;98972.72;;;16.12
77331;BMP280;66405;48.328;7.820;2023-04-15T08:13:08;98972.81;;;16.00
77331;BMP280;66405;48.328;7.820;2023-04-15T08:15:33;98980.50;;;15.96
77331;BMP280;66405;48.328;7.820;2023-04-15T08:17:59;98969.56;;;16.02
77331;BMP280;66405;48.328;7.820;2023-04-15T08:20:27;98983.16;;;16.08
77331;BMP280;66405;48.328;7.820;2023-04-15T08:22:53;98978.50;;;16.03
77331;BMP280;66405;48.328;7.820;2023-04-15T08:25:20;98979.31;;;15.92
77331;BMP280;66405;48.328;7.820;2023-04-15T08:27:45;98985.09;;;15.71
77331;BMP280;66405;48.328;7.820;2023-04-15T08:30:11;98986.31;;;15.70
77331;BMP280;66405;48.328;7.820;2023-04-15T08:32:37;98989.50;;;15.86
77331;BMP280;66405;48.328;7.820;2023-04-15T08:35:03;98983.22;;;15.96
77331;BMP280;66405;48.328;7.820;2023-04-15T08:37:28;98984.69;;;15.97
77331;BMP280;66405;48.328;7.820;2023-04-15T08:39:53;98995.34;;;16.01
77331;BMP280;66405;48.328;7.820;2023-04-15T08:42:26;98986.00;;;15.91
77331;BMP280;66405;48.328;7.820;2023-04-15T08:44:52;98988.41;;;16.00
77331;BMP280;66405;48.328;7.820;2023-04-15T08:47:20;98995.50;;;16.14
77331;BMP280;66405;48.328;7.820;2023-04-15T08:49:46;98989.91;;;16.31
77331;BMP280;66405;48.328;7.820;2023-04-15T08:52:18;98994.44;;;16.53
77331;BMP280;66405;48.328;7.820;2023-04-15T08:54:44;98994.94;;;16.82
77331;BMP280;66405;48.328;7.820;2023-04-15T08:57:10;99004.19;;;16.98
77331;BMP280;66405;48.328;7.820;2023-04-15T08:59:35;99005.59;;;17.05
77331;BMP280;66405;48.328;7.820;2023-04-15T09:02:01;99009.03;;;17.30
77331;BMP280;66405;48.328;7.820;2023-04-15T09:04:28;99004.25;;;17.36
77331;BMP280;66405;48.328;7.820;2023-04-15T09:06:54;99003.50;;;17.36
77331;BMP280;66405;48.328;7.820;2023-04-15T09:09:19;99000.97;;;17.57
77331;BMP280;66405;48.328;7.820;2023-04-15T09:11:44;99005.00;;;17.56
77331;BMP280;66405;48.328;7.820;2023-04-15T09:14:10;99011.56;;;17.66
77331;BMP280;66405;48.328;7.820;2023-04-15T09:16:58;99015.00;;;17.86
77331;BMP280;66405;48.328;7.820;2023-04-15T09:19:28;99019.88;;;17.93
77331;BMP280;66405;48.328;7.820;2023-04-15T09:21:55;99019.72;;;18.04
77331;BMP280;66405;48.328;7.820;2023-04-15T09:24:21;99024.66;;;18.38
77331;BMP280;66405;48.328;7.820;2023-04-15T09:26:51;99027.56;;;18.73
77331;BMP280;66405;48.328;7.820;2023-04-15T09:29:17;99024.81;;;19.13
77331;BMP280;66405;48.328;7.820;2023-04-15T09:31:43;99020.66;;;19.46
77331;BMP280;66405;48.328;7.820;2023-04-15T09:34:09;99025.94;;;19.65
77331;BMP280;66405;48.328;7.820;2023-04-15T09:39:12;99021.00;;;19.16
77331;BMP280;66405;48.328;7.820;2023-04-15T09:41:38;99027.31;;;19.24
77331;BMP280;66405;48.328;7.820;2023-04-15T09:44:04;99031.63;;;19.33
77331;BMP280;66405;48.328;7.820;2023-04-15T09:46:40;99023.63;;;19.35
77331;BMP280;66405;48.328;7.820;2023-04-15T09:49:07;99030.84;;;19.46
77331;BMP280;66405;48.328;7.820;2023-04-15T09:51:34;99030.13;;;19.32
77331;BMP280;66405;48.328;7.820;2023-04-15T09:54:00;99035.94;;;19.28
77331;BMP280;66405;48.328;7.820;2023-04-15T09:56:33;99037.72;;;19.39
77331;BMP280;66405;48.328;7.820;2023-04-15T09:58:59;99035.16;;;19.54
77331;BMP280;66405;48.328;7.820;2023-04-15T10:01:24;99038.16;;;19.64
77331;BMP280;66405;48.328;7.820;2023-04-15T10:03:50;99048.44;;;19.50
77331;BMP280;66405;48.328;7.820;2023-04-15T10:06:17;99042.91;;;19.43
77331;BMP280;66405;48.328;7.820;2023-04-15T10:08:43;99047.38;;;19.40
77331;BMP280;66405;48.328;7.820;2023-04-15T10:11:10;99053.53;;;19.46
77331;BMP280;66405;48.328;7.820;2023-04-15T10:13:37;99059.94;;;19.62
77331;BMP280;66405;48.328;7.820;2023-04-15T10:16:09;99053.38;;;19.86
77331;BMP280;66405;48.328;7.820;2023-04-15T10:18:38;99053.28;;;20.13
77331;BMP280;66405;48.328;7.820;2023-04-15T10:21:07;99055.47;;;20.36
77331;BMP280;66405;48.328;7.820;2023-04-15T10:23:33;99060.25;;;20.64
77331;BMP280;66405;48.328;7.820;2023-04-15T10:25:59;99056.25;;;20.94
77331;BMP280;66405;48.328;7.820;2023-04-15T10:28:25;99052.97;;;21.03
77331;BMP280;66405;48.328;7.820;2023-04-15T10:30:51;99064.81;;;20.90
77331;BMP280;66405;48.328;7.820;2023-04-15T10:33:21;99057.59;;;21.16
77331;BMP280;66405;48.328;7.820;2023-04-15T10:35:50;99062.13;;;21.58
77331;BMP280;66405;48.328;7.820;2023-04-15T10:38:41;99056.19;;;21.98
77331;BMP280;66405;48.328;7.820;2023-04-15T10:46:43;99066.34;;;23.30
77331;BMP280;66405;48.328;7.820;2023-04-15T10:49:24;99062.09;;;23.62
77331;BMP280;66405;48.328;7.820;2023-04-15T10:51:51;99071.13;;;23.88
77331;BMP280;66405;48.328;7.820;2023-04-15T10:57:06;99076.59;;;24.21
77331;BMP280;66405;48.328;7.820;2023-04-15T10:59:36;99081.31;;;24.28
77331;BMP280;66405;48.328;7.820;2023-04-15T11:02:06;99072.81;;;24.26
77331;BMP280;66405;48.328;7.820;2023-04-15T11:04:57;99075.38;;;24.32
77331;BMP280;66405;48.328;7.820;2023-04-15T11:07:55;99080.22;;;24.23
77331;BMP280;66405;48.328;7.820;2023-04-15T11:12:55;99083.81;;;24.34
77331;BMP280;66405;48.328;7.820;2023-04-15T11:17:55;99094.63;;;24.74
77331;BMP280;66405;48.328;7.820;2023-04-15T11:20:21;99091.63;;;24.80
77331;BMP280;66405;48.328;7.820;2023-04-15T11:22:51;99092.72;;;24.94
77331;BMP280;66405;48.328;7.820;2023-04-15T11:25:28;99092.50;;;25.27
77331;BMP280;66405;48.328;7.820;2023-04-15T11:27:54;99094.44;;;25.71
77331;BMP280;66405;48.328;7.820;2023-04-15T11:30:26;99091.41;;;26.24
77331;BMP280;66405;48.328;7.820;2023-04-15T11:32:53;99099.13;;;26.64
77331;BMP280;66405;48.328;7.820;2023-04-15T11:35:18;99102.19;;;26.88
77331;BMP280;66405;48.328;7.820;2023-04-15T11:37:45;99098.19;;;27.10
77331;BMP280;66405;48.328;7.820;2023-04-15T11:40:11;99096.19;;;27.42
77331;BMP280;66405;48.328;7.820;2023-04-15T11:42:37;99098.13;;;27.71
77331;BMP280;66405;48.328;7.820;2023-04-15T11:45:10;99102.50;;;27.74
77331;BMP280;66405;48.328;7.820;2023-04-15T11:47:39;99096.81;;;27.41
77331;BMP280;66405;48.328;7.820;2023-04-15T11:50:21;99103.31;;;27.04
77331;BMP280;66405;48.328;7.820;2023-04-15T11:55:18;99108.81;;;27.65
77331;BMP280;66405;48.328;7.820;2023-04-15T11:57:44;99109.44;;;27.54
77331;BMP280;66405;48.328;7.820;2023-04-15T12:00:11;99117.25;;;27.67
77331;BMP280;66405;48.328;7.820;2023-04-15T12:02:38;99118.03;;;27.89
77331;BMP280;66405;48.328;7.820;2023-04-15T12:05:04;99112.56;;;28.01
77331;BMP280;66405;48.328;7.820;2023-04-15T12:07:30;99112.97;;;28.07
77331;BMP280;66405;48.328;7.820;2023-04-15T12:09:56;99119.34;;;28.09
77331;BMP280;66405;48.328;7.820;2023-04-15T12:12:26;99122.94;;;28.22
77331;BMP280;66405;48.328;7.820;2023-04-15T12:14:51;99120.50;;;28.16
77331;BMP280;66405;48.328;7.820;2023-04-15T12:17:17;99118.97;;;28.25
77331;BMP280;66405;48.328;7.820;2023-04-15T12:19:43;99123.34;;;28.28
77331;BMP280;66405;48.328;7.820;2023-04-15T12:22:14;99123.56;;;28.20
77331;BMP280;66405;48.328;7.820;2023-04-15T12:24:42;99136.16;;;28.33
77331;BMP280;66405;48.328;7.820;2023-04-15T12:27:11;99134.84;;;28.34
77331;BMP280;66405;48.328;7.820;2023-04-15T12:29:41;99129.63;;;28.28
77331;BMP280;66405;48.328;7.820;2023-04-15T12:32:15;99141.09;;;28.56
77331;BMP280;66405;48.328;7.820;2023-04-15T12:34:43;99137.13;;;28.59
77331;BMP280;66405;48.328;7.820;2023-04-15T12:37:10;99142.25;;;28.41
77331;BMP280;66405;48.328;7.820;2023-04-15T12:39:41;99148.44;;;28.30
77331;BMP280;66405;48.328;7.820;2023-04-15T12:42:07;99147.66;;;27.96
77331;BMP280;66405;48.328;7.820;2023-04-15T12:44:34;99150.31;;;27.94
77331;BMP280;66405;48.328;7.820;2023-04-15T12:46:59;99152.34;;;28.15
77331;BMP280;66405;48.328;7.820;2023-04-15T12:49:25;99154.88;;;28.54
77331;BMP280;66405;48.328;7.820;2023-04-15T12:51:53;99157.94;;;28.92
77331;BMP280;66405;48.328;7.820;2023-04-15T12:54:22;99158.56;;;29.25
77331;BMP280;66405;48.328;7.820;2023-04-15T12:56:48;99168.03;;;29.56
77331;BMP280;66405;48.328;7.820;2023-04-15T12:59:16;99171.31;;;29.64
77331;BMP280;66405;48.328;7.820;2023-04-15T13:01:44;99164.19;;;29.85
77331;BMP280;66405;48.328;7.820;2023-04-15T13:04:11;99175.03;;;30.04
77331;BMP280;66405;48.328;7.820;2023-04-15T13:06:36;99170.28;;;30.07
77331;BMP280;66405;48.328;7.820;2023-04-15T13:09:03;99175.31;;;29.85
77331;BMP280;66405;48.328;7.820;2023-04-15T13:11:29;99187.06;;;29.48
77331;BMP280;66405;48.328;7.820;2023-04-15T13:14:03;99179.97;;;29.11
77331;BMP280;66405;48.328;7.820;2023-04-15T13:16:29;99192.88;;;28.95
77331;BMP280;66405;48.328;7.820;2023-04-15T13:18:54;99193.47;;;28.72
77331;BMP280;66405;48.328;7.820;2023-04-15T13:21:21;99197.59;;;28.71
77331;BMP280;66405;48.328;7.820;2023-04-15T13:23:48;99194.19;;;28.94
77331;BMP280;66405;48.328;7.820;2023-04-15T13:26:15;99207.44;;;29.29
77331;BMP280;66405;48.328;7.820;2023-04-15T13:28:40;99199.63;;;29.49
77331;BMP280;66405;48.328;7.820;2023-04-15T13:31:06;99199.66;;;29.72
77331;BMP280;66405;48.328;7.820;2023-04-15T13:33:31;99206.50;;;30.07
77331;BMP280;66405;48.328;7.820;2023-04-15T13:35:57;99205.19;;;30.45
77331;BMP280;66405;48.328;7.820;2023-04-15T13:38:23;99208.84;;;30.73
77331;BMP280;66405;48.328;7.820;2023-04-15T13:40:49;99210.19;;;30.98
77331;BMP280;66405;48.328;7.820;2023-04-15T13:43:15;99217.34;;;31.01
77331;BMP280;66405;48.328;7.820;2023-04-15T13:45:42;99219.25;;;30.85
77331;BMP280;66405;48.328;7.820;2023-04-15T13:48:09;99219.50;;;30.51
77331;BMP280;66405;48.328;7.820;2023-04-15T13:50:36;99220.56;;;30.20
77331;BMP280;66405;48.328;7.820;2023-04-15T13:53:02;99227.97;;;30.04
77331;BMP280;66405;48.328;7.820;2023-04-15T13:55:27;99221.91;;;29.96
77331;BMP280;66405;48.328;7.820;2023-04-15T13:57:53;99244.06;;;30.06
77331;BMP280;66405;48.328;7.820;2023-04-15T14:00:18;99231.19;;;30.24
77331;BMP280;66405;48.328;7.820;2023-04-15T14:02:44;99236.53;;;30.32
77331;BMP280;66405;48.328;7.820;2023-04-15T14:05:10;99231.53;;;30.42
77331;BMP280;66405;48.328;7.820;2023-04-15T14:07:37;99227.94;;;30.91
77331;BMP280;66405;48.328;7.820;2023-04-15T14:10:03;99237.38;;;31.37
77331;BMP280;66405;48.328;7.820;2023-04-15T14:12:29;99236.28;;;31.70
77331;BMP280;66405;48.328;7.820;2023-04-15T14:14:55;99240.19;;;31.92
77331;BMP280;66405;48.328;7.820;2023-04-15T14:17:20;99240.06;;;32.32
77331;BMP280;66405;48.328;7.820;2023-04-15T14:19:47;99247.97;;;32.51
77331;BMP280;66405;48.328;7.820;2023-04-15T14:22:13;99253.28;;;32.31
77331;BMP280;66405;48.328;7.820;2023-04-15T14:24:38;99259.47;;;31.86
77331;BMP280;66405;48.328;7.820;2023-04-15T14:27:03;99258.25;;;31.36
77331;BMP280;66405;48.328;7.820;2023-04-15T14:29:29;99252.38;;;30.78